KBOS/BOS METAR and TAF weather

Enter ICAO airport designator
Station Type Date Time Source
KBOS METAR 2020/11/27 14:54 UTC NOAA

KBOS 271454Z 26004KT 10SM BKN055 BKN070 11/08 A3005 RMK AO2 SLP175 T01110083 50007


Station Type Date Time Source
KBOS Decoded METAR 2020/11/27 14:54 UTC NOAA

BOSTON LOGAN INTERNATIONAL, MA, United States (KBOS) 42-22N 071-01W 54M
Nov 27, 2020 - 09:54 AM EST / 2020.11.27 1454 UTC
Wind: from the W (260 degrees) at 5 MPH (4 KT):0
Visibility: 10 mile(s):0
Sky conditions: mostly cloudy
Temperature: 52.0 F (11.1 C)
Dew Point: 46.9 F (8.3 C)
Relative Humidity: 82%
Pressure (altimeter): 30.05 in. Hg (1017 hPa)
Pressure tendency: 0.02 inches (0.7 hPa) higher than three hours ago
ob: KBOS 271454Z 26004KT 10SM BKN055 BKN070 11/08 A3005 RMK AO2 SLP175 T01110083 50007
cycle: 15

Station Type Date Time Source
KBOS TAF 2020/11/27 12:46 UTC NOAA

TAF KBOS 271137Z 2712/2818 28004KT P6SM FEW003
FM271400 29006KT P6SM BKN040
FM280000 30005KT P6SM OVC050
FM281500 29008KT P6SM SCT045

Example: see airport list